sensor_id;sensor_type;location;lat;lon;timestamp;temperature;humidity
25108;DHT22;13090;53.422;7.670;2023-06-19T00:03:23;23.20;67.40
25108;DHT22;13090;53.422;7.670;2023-06-19T00:08:43;23.20;67.20
25108;DHT22;13090;53.422;7.670;2023-06-19T00:14:06;23.20;67.20
25108;DHT22;13090;53.422;7.670;2023-06-19T00:19:27;23.20;67.70
25108;DHT22;13090;53.422;7.670;2023-06-19T00:24:48;23.10;68.40
25108;DHT22;13090;53.422;7.670;2023-06-19T00:30:11;23.00;69.00
25108;DHT22;13090;53.422;7.670;2023-06-19T00:35:32;22.90;69.00
25108;DHT22;13090;53.422;7.670;2023-06-19T00:40:53;22.90;68.70
25108;DHT22;13090;53.422;7.670;2023-06-19T00:46:16;22.90;68.20
25108;DHT22;13090;53.422;7.670;2023-06-19T00:51:38;22.90;67.70
25108;DHT22;13090;53.422;7.670;2023-06-19T00:56:59;23.00;67.70
25108;DHT22;13090;53.422;7.670;2023-06-19T01:02:22;23.00;67.30
25108;DHT22;13090;53.422;7.670;2023-06-19T01:07:48;23.10;66.40
25108;DHT22;13090;53.422;7.670;2023-06-19T01:13:17;23.20;66.00
25108;DHT22;13090;53.422;7.670;2023-06-19T01:18:42;23.20;66.30
25108;DHT22;13090;53.422;7.670;2023-06-19T01:24:05;23.20;66.40
25108;DHT22;13090;53.422;7.670;2023-06-19T01:29:26;23.10;66.30
25108;DHT22;13090;53.422;7.670;2023-06-19T01:34:48;23.10;66.20
25108;DHT22;13090;53.422;7.670;2023-06-19T01:40:11;23.00;66.10
25108;DHT22;13090;53.422;7.670;2023-06-19T01:45:33;23.00;66.10
25108;DHT22;13090;53.422;7.670;2023-06-19T01:50:54;22.90;66.00
25108;DHT22;13090;53.422;7.670;2023-06-19T01:56:16;23.00;66.00
25108;DHT22;13090;53.422;7.670;2023-06-19T02:01:37;22.90;66.00
25108;DHT22;13090;53.422;7.670;2023-06-19T02:06:58;22.90;65.90
25108;DHT22;13090;53.422;7.670;2023-06-19T02:12:21;22.90;65.60
25108;DHT22;13090;53.422;7.670;2023-06-19T02:17:42;22.80;64.90
25108;DHT22;13090;53.422;7.670;2023-06-19T02:23:03;22.90;64.50
25108;DHT22;13090;53.422;7.670;2023-06-19T02:28:25;22.90;64.00
25108;DHT22;13090;53.422;7.670;2023-06-19T02:33:46;22.90;63.00
25108;DHT22;13090;53.422;7.670;2023-06-19T02:39:07;22.90;61.80
25108;DHT22;13090;53.422;7.670;2023-06-19T02:44:30;23.00;62.00
25108;DHT22;13090;53.422;7.670;2023-06-19T02:49:51;23.10;60.80
25108;DHT22;13090;53.422;7.670;2023-06-19T02:55:12;23.00;60.00
25108;DHT22;13090;53.422;7.670;2023-06-19T03:00:34;23.10;59.80
25108;DHT22;13090;53.422;7.670;2023-06-19T03:05:55;23.10;59.30
25108;DHT22;13090;53.422;7.670;2023-06-19T03:11:15;23.10;59.00
25108;DHT22;13090;53.422;7.670;2023-06-19T03:16:38;23.20;58.70
25108;DHT22;13090;53.422;7.670;2023-06-19T03:21:59;23.20;58.30
25108;DHT22;13090;53.422;7.670;2023-06-19T03:27:20;23.30;58.50
25108;DHT22;13090;53.422;7.670;2023-06-19T03:32:42;23.40;58.30
25108;DHT22;13090;53.422;7.670;2023-06-19T03:38:03;23.40;57.70
25108;DHT22;13090;53.422;7.670;2023-06-19T03:43:24;23.40;57.80
25108;DHT22;13090;53.422;7.670;2023-06-19T03:48:46;23.50;57.70
25108;DHT22;13090;53.422;7.670;2023-06-19T03:54:07;23.50;57.60
25108;DHT22;13090;53.422;7.670;2023-06-19T03:59:27;23.50;57.60
25108;DHT22;13090;53.422;7.670;2023-06-19T04:04:49;23.40;57.80
25108;DHT22;13090;53.422;7.670;2023-06-19T04:10:11;23.50;57.80
25108;DHT22;13090;53.422;7.670;2023-06-19T04:15:31;23.50;57.90
25108;DHT22;13090;53.422;7.670;2023-06-19T04:20:54;23.50;57.90
25108;DHT22;13090;53.422;7.670;2023-06-19T04:26:14;23.60;57.80
25108;DHT22;13090;53.422;7.670;2023-06-19T04:31:35;23.60;57.80
25108;DHT22;13090;53.422;7.670;2023-06-19T04:36:57;23.70;57.70
25108;DHT22;13090;53.422;7.670;2023-06-19T04:42:18;23.80;57.70
25108;DHT22;13090;53.422;7.670;2023-06-19T04:47:39;23.80;57.70
25108;DHT22;13090;53.422;7.670;2023-06-19T04:53:14;23.90;57.80
25108;DHT22;13090;53.422;7.670;2023-06-19T04:58:35;23.90;57.90
25108;DHT22;13090;53.422;7.670;2023-06-19T05:03:56;23.90;58.00
25108;DHT22;13090;53.422;7.670;2023-06-19T05:09:19;24.00;58.20
25108;DHT22;13090;53.422;7.670;2023-06-19T05:14:40;24.10;58.70
25108;DHT22;13090;53.422;7.670;2023-06-19T05:20:01;24.30;59.00
25108;DHT22;13090;53.422;7.670;2023-06-19T05:25:23;24.60;59.10
25108;DHT22;13090;53.422;7.670;2023-06-19T05:30:44;25.00;58.90
25108;DHT22;13090;53.422;7.670;2023-06-19T05:36:05;25.30;58.90
25108;DHT22;13090;53.422;7.670;2023-06-19T05:41:27;25.80;58.70
25108;DHT22;13090;53.422;7.670;2023-06-19T05:46:48;26.40;58.40
25108;DHT22;13090;53.422;7.670;2023-06-19T05:52:09;27.00;57.90
25108;DHT22;13090;53.422;7.670;2023-06-19T05:57:31;27.50;56.90
25108;DHT22;13090;53.422;7.670;2023-06-19T06:02:53;27.80;55.80
25108;DHT22;13090;53.422;7.670;2023-06-19T06:08:14;27.90;54.80
25108;DHT22;13090;53.422;7.670;2023-06-19T06:13:36;27.70;54.20
25108;DHT22;13090;53.422;7.670;2023-06-19T06:18:57;27.50;54.60
25108;DHT22;13090;53.422;7.670;2023-06-19T06:24:18;27.50;55.10
25108;DHT22;13090;53.422;7.670;2023-06-19T06:29:40;27.70;55.90
25108;DHT22;13090;53.422;7.670;2023-06-19T06:35:02;28.20;55.50
25108;DHT22;13090;53.422;7.670;2023-06-19T06:40:23;28.50;54.80
25108;DHT22;13090;53.422;7.670;2023-06-19T06:45:46;28.90;55.20
25108;DHT22;13090;53.422;7.670;2023-06-19T06:51:07;29.50;54.00
25108;DHT22;13090;53.422;7.670;2023-06-19T06:56:28;29.80;52.60
25108;DHT22;13090;53.422;7.670;2023-06-19T07:01:50;30.00;52.40
25108;DHT22;13090;53.422;7.670;2023-06-19T07:07:11;30.40;51.90
25108;DHT22;13090;53.422;7.670;2023-06-19T07:12:32;30.80;51.80
25108;DHT22;13090;53.422;7.670;2023-06-19T07:17:55;31.30;51.00
25108;DHT22;13090;53.422;7.670;2023-06-19T07:23:16;31.70;49.80
25108;DHT22;13090;53.422;7.670;2023-06-19T07:28:38;31.90;49.30
25108;DHT22;13090;53.422;7.670;2023-06-19T07:34:00;32.20;49.00
25108;DHT22;13090;53.422;7.670;2023-06-19T07:39:21;32.50;48.70
25108;DHT22;13090;53.422;7.670;2023-06-19T07:44:42;32.80;48.30
25108;DHT22;13090;53.422;7.670;2023-06-19T07:50:06;33.00;46.90
25108;DHT22;13090;53.422;7.670;2023-06-19T07:55:27;33.00;46.00
25108;DHT22;13090;53.422;7.670;2023-06-19T08:00:48;32.90;47.20
25108;DHT22;13090;53.422;7.670;2023-06-19T08:06:10;32.70;46.70
25108;DHT22;13090;53.422;7.670;2023-06-19T08:11:31;32.20;46.60
25108;DHT22;13090;53.422;7.670;2023-06-19T08:16:52;31.50;47.00
25108;DHT22;13090;53.422;7.670;2023-06-19T08:22:14;30.80;47.90
25108;DHT22;13090;53.422;7.670;2023-06-19T08:27:36;30.10;48.80
25108;DHT22;13090;53.422;7.670;2023-06-19T08:32:57;29.30;49.90
25108;DHT22;13090;53.422;7.670;2023-06-19T08:38:19;28.70;51.00
25108;DHT22;13090;53.422;7.670;2023-06-19T08:43:40;28.10;52.10
25108;DHT22;13090;53.422;7.670;2023-06-19T08:49:01;27.70;52.90
25108;DHT22;13090;53.422;7.670;2023-06-19T08:54:23;27.30;53.70
25108;DHT22;13090;53.422;7.670;2023-06-19T08:59:49;27.00;54.80
25108;DHT22;13090;53.422;7.670;2023-06-19T09:05:15;26.70;56.60
25108;DHT22;13090;53.422;7.670;2023-06-19T09:10:38;26.60;57.80
25108;DHT22;13090;53.422;7.670;2023-06-19T09:16:00;26.30;58.50
25108;DHT22;13090;53.422;7.670;2023-06-19T09:21:22;26.00;59.40
25108;DHT22;13090;53.422;7.670;2023-06-19T09:26:45;25.70;60.10
25108;DHT22;13090;53.422;7.670;2023-06-19T09:32:17;25.40;61.40
25108;DHT22;13090;53.422;7.670;2023-06-19T09:37:39;25.20;63.70
25108;DHT22;13090;53.422;7.670;2023-06-19T09:43:03;25.00;63.30
25108;DHT22;13090;53.422;7.670;2023-06-19T09:48:28;25.00;64.40
25108;DHT22;13090;53.422;7.670;2023-06-19T09:53:49;25.00;64.90
25108;DHT22;13090;53.422;7.670;2023-06-19T09:59:12;25.00;64.70
25108;DHT22;13090;53.422;7.670;2023-06-19T10:04:42;25.00;64.80
25108;DHT22;13090;53.422;7.670;2023-06-19T10:10:05;25.00;65.50
25108;DHT22;13090;53.422;7.670;2023-06-19T10:15:28;24.90;64.50
25108;DHT22;13090;53.422;7.670;2023-06-19T10:20:49;24.90;64.50
25108;DHT22;13090;53.422;7.670;2023-06-19T10:26:16;24.90;64.50
25108;DHT22;13090;53.422;7.670;2023-06-19T10:31:38;25.00;65.20
25108;DHT22;13090;53.422;7.670;2023-06-19T10:36:59;25.10;64.60
25108;DHT22;13090;53.422;7.670;2023-06-19T10:42:20;25.30;64.30
25108;DHT22;13090;53.422;7.670;2023-06-19T10:47:43;25.50;64.70
25108;DHT22;13090;53.422;7.670;2023-06-19T10:53:04;25.90;64.60
25108;DHT22;13090;53.422;7.670;2023-06-19T10:58:25;26.40;63.90
25108;DHT22;13090;53.422;7.670;2023-06-19T11:03:48;26.90;62.00
25108;DHT22;13090;53.422;7.670;2023-06-19T11:09:11;27.10;60.40
25108;DHT22;13090;53.422;7.670;2023-06-19T11:14:32;27.20;60.40
25108;DHT22;13090;53.422;7.670;2023-06-19T11:19:57;27.70;60.80
25108;DHT22;13090;53.422;7.670;2023-06-19T11:25:18;28.20;59.30
25108;DHT22;13090;53.422;7.670;2023-06-19T11:30:39;28.80;58.60
25108;DHT22;13090;53.422;7.670;2023-06-19T11:36:02;29.20;56.10
25108;DHT22;13090;53.422;7.670;2023-06-19T11:41:27;29.30;55.00
25108;DHT22;13090;53.422;7.670;2023-06-19T11:46:48;29.10;55.10
25108;DHT22;13090;53.422;7.670;2023-06-19T11:52:11;29.00;55.00
25108;DHT22;13090;53.422;7.670;2023-06-19T11:57:32;29.10;55.30
25108;DHT22;13090;53.422;7.670;2023-06-19T12:02:53;29.40;55.70
25108;DHT22;13090;53.422;7.670;2023-06-19T12:08:16;29.60;54.30
25108;DHT22;13090;53.422;7.670;2023-06-19T12:13:37;29.80;53.30
25108;DHT22;13090;53.422;7.670;2023-06-19T12:18:58;29.80;52.90
25108;DHT22;13090;53.422;7.670;2023-06-19T12:24:21;29.90;52.40
25108;DHT22;13090;53.422;7.670;2023-06-19T12:29:42;29.90;52.10
25108;DHT22;13090;53.422;7.670;2023-06-19T12:35:03;30.00;52.90
25108;DHT22;13090;53.422;7.670;2023-06-19T12:40:25;30.20;52.30
25108;DHT22;13090;53.422;7.670;2023-06-19T12:45:46;30.40;51.30
25108;DHT22;13090;53.422;7.670;2023-06-19T12:51:07;30.40;50.70
25108;DHT22;13090;53.422;7.670;2023-06-19T12:56:29;30.60;49.90
25108;DHT22;13090;53.422;7.670;2023-06-19T13:01:50;30.60;49.30
25108;DHT22;13090;53.422;7.670;2023-06-19T13:07:11;30.60;49.80
25108;DHT22;13090;53.422;7.670;2023-06-19T13:12:33;30.70;49.70
25108;DHT22;13090;53.422;7.670;2023-06-19T13:17:54;30.90;49.30
25108;DHT22;13090;53.422;7.670;2023-06-19T13:23:15;31.00;48.80
25108;DHT22;13090;53.422;7.670;2023-06-19T13:28:38;31.00;48.40
25108;DHT22;13090;53.422;7.670;2023-06-19T13:33:59;30.90;48.20
25108;DHT22;13090;53.422;7.670;2023-06-19T13:39:20;30.90;48.30
25108;DHT22;13090;53.422;7.670;2023-06-19T13:44:42;30.90;48.20
25108;DHT22;13090;53.422;7.670;2023-06-19T13:50:03;30.80;48.10
25108;DHT22;13090;53.422;7.670;2023-06-19T13:55:25;30.90;48.00
25108;DHT22;13090;53.422;7.670;2023-06-19T14:00:47;31.00;48.00
25108;DHT22;13090;53.422;7.670;2023-06-19T14:06:08;31.00;48.10
25108;DHT22;13090;53.422;7.670;2023-06-19T14:11:29;31.10;47.50
25108;DHT22;13090;53.422;7.670;2023-06-19T14:16:51;31.20;47.60
25108;DHT22;13090;53.422;7.670;2023-06-19T14:22:12;31.30;47.10
25108;DHT22;13090;53.422;7.670;2023-06-19T14:27:33;31.40;46.90
25108;DHT22;13090;53.422;7.670;2023-06-19T14:32:56;31.50;46.80
25108;DHT22;13090;53.422;7.670;2023-06-19T14:38:17;31.50;46.50
25108;DHT22;13090;53.422;7.670;2023-06-19T14:43:38;31.50;45.90
25108;DHT22;13090;53.422;7.670;2023-06-19T14:49:00;31.50;45.60
25108;DHT22;13090;53.422;7.670;2023-06-19T14:54:21;31.40;45.30
25108;DHT22;13090;53.422;7.670;2023-06-19T14:59:42;31.30;46.60
25108;DHT22;13090;53.422;7.670;2023-06-19T15:05:05;31.30;46.30
25108;DHT22;13090;53.422;7.670;2023-06-19T15:10:27;31.40;46.30
25108;DHT22;13090;53.422;7.670;2023-06-19T15:15:48;31.30;45.70
25108;DHT22;13090;53.422;7.670;2023-06-19T15:21:10;31.20;45.50
25108;DHT22;13090;53.422;7.670;2023-06-19T15:26:31;31.10;45.30
25108;DHT22;13090;53.422;7.670;2023-06-19T15:31:52;31.10;45.50
25108;DHT22;13090;53.422;7.670;2023-06-19T15:37:14;31.00;45.40
25108;DHT22;13090;53.422;7.670;2023-06-19T15:42:35;30.90;45.20
25108;DHT22;13090;53.422;7.670;2023-06-19T15:47:56;30.70;45.40
25108;DHT22;13090;53.422;7.670;2023-06-19T15:53:18;30.60;45.20
25108;DHT22;13090;53.422;7.670;2023-06-19T15:58:39;30.50;45.50
25108;DHT22;13090;53.422;7.670;2023-06-19T16:04:00;30.60;45.40
25108;DHT22;13090;53.422;7.670;2023-06-19T16:09:22;30.60;45.20
25108;DHT22;13090;53.422;7.670;2023-06-19T16:14:46;30.60;45.20
25108;DHT22;13090;53.422;7.670;2023-06-19T16:20:09;30.60;45.40
25108;DHT22;13090;53.422;7.670;2023-06-19T16:25:32;30.60;45.20
25108;DHT22;13090;53.422;7.670;2023-06-19T16:30:53;30.60;45.10
25108;DHT22;13090;53.422;7.670;2023-06-19T16:36:16;30.50;45.10
25108;DHT22;13090;53.422;7.670;2023-06-19T16:41:38;30.40;45.00
25108;DHT22;13090;53.422;7.670;2023-06-19T16:46:59;30.20;44.90
25108;DHT22;13090;53.422;7.670;2023-06-19T16:52:21;30.00;45.10
25108;DHT22;13090;53.422;7.670;2023-06-19T16:57:43;29.70;45.40
25108;DHT22;13090;53.422;7.670;2023-06-19T17:03:04;29.50;45.70
25108;DHT22;13090;53.422;7.670;2023-06-19T17:08:25;29.40;45.90
25108;DHT22;13090;53.422;7.670;2023-06-19T17:13:48;29.40;46.10
25108;DHT22;13090;53.422;7.670;2023-06-19T17:19:09;29.30;46.10
25108;DHT22;13090;53.422;7.670;2023-06-19T17:24:30;29.30;46.20
25108;DHT22;13090;53.422;7.670;2023-06-19T17:29:52;29.20;46.10
25108;DHT22;13090;53.422;7.670;2023-06-19T17:35:13;29.10;46.20
25108;DHT22;13090;53.422;7.670;2023-06-19T17:40:33;29.10;46.30
25108;DHT22;13090;53.422;7.670;2023-06-19T17:45:55;29.10;46.10
25108;DHT22;13090;53.422;7.670;2023-06-19T17:51:17;28.90;46.40
25108;DHT22;13090;53.422;7.670;2023-06-19T17:56:37;28.90;46.80
25108;DHT22;13090;53.422;7.670;2023-06-19T18:01:59;28.90;47.40
25108;DHT22;13090;53.422;7.670;2023-06-19T18:07:20;28.80;47.80
25108;DHT22;13090;53.422;7.670;2023-06-19T18:12:41;28.80;48.30
25108;DHT22;13090;53.422;7.670;2023-06-19T18:18:04;28.70;48.70
25108;DHT22;13090;53.422;7.670;2023-06-19T18:23:25;28.70;48.90
25108;DHT22;13090;53.422;7.670;2023-06-19T18:28:46;28.60;49.00
25108;DHT22;13090;53.422;7.670;2023-06-19T18:34:08;28.50;49.20
25108;DHT22;13090;53.422;7.670;2023-06-19T18:39:29;28.30;49.40
25108;DHT22;13090;53.422;7.670;2023-06-19T18:44:50;28.20;49.60
25108;DHT22;13090;53.422;7.670;2023-06-19T18:50:13;28.00;49.70
25108;DHT22;13090;53.422;7.670;2023-06-19T18:55:35;27.80;50.30
25108;DHT22;13090;53.422;7.670;2023-06-19T19:01:00;27.70;50.50
25108;DHT22;13090;53.422;7.670;2023-06-19T19:06:26;27.50;50.80
25108;DHT22;13090;53.422;7.670;2023-06-19T19:11:47;27.50;51.10
25108;DHT22;13090;53.422;7.670;2023-06-19T19:17:08;27.30;51.20
25108;DHT22;13090;53.422;7.670;2023-06-19T19:22:31;27.20;51.40
25108;DHT22;13090;53.422;7.670;2023-06-19T19:27:51;27.10;51.90
25108;DHT22;13090;53.422;7.670;2023-06-19T19:33:12;27.00;52.00
25108;DHT22;13090;53.422;7.670;2023-06-19T19:38:34;26.80;52.30
25108;DHT22;13090;53.422;7.670;2023-06-19T19:43:55;26.70;52.60
25108;DHT22;13090;53.422;7.670;2023-06-19T19:49:16;26.50;52.60
25108;DHT22;13090;53.422;7.670;2023-06-19T19:54:38;26.30;52.60
25108;DHT22;13090;53.422;7.670;2023-06-19T19:59:59;26.10;52.90
25108;DHT22;13090;53.422;7.670;2023-06-19T20:05:20;25.90;53.00
25108;DHT22;13090;53.422;7.670;2023-06-19T20:10:43;25.60;53.40
25108;DHT22;13090;53.422;7.670;2023-06-19T20:16:04;25.50;53.80
25108;DHT22;13090;53.422;7.670;2023-06-19T20:21:26;25.40;54.20
25108;DHT22;13090;53.422;7.670;2023-06-19T20:26:49;25.30;54.40
25108;DHT22;13090;53.422;7.670;2023-06-19T20:32:10;25.10;54.60
25108;DHT22;13090;53.422;7.670;2023-06-19T20:37:30;25.00;55.50
25108;DHT22;13090;53.422;7.670;2023-06-19T20:42:53;24.90;55.20
25108;DHT22;13090;53.422;7.670;2023-06-19T20:48:13;24.70;55.80
25108;DHT22;13090;53.422;7.670;2023-06-19T20:53:34;24.60;55.90
25108;DHT22;13090;53.422;7.670;2023-06-19T20:58:57;24.40;56.10
25108;DHT22;13090;53.422;7.670;2023-06-19T21:04:18;24.20;56.50
25108;DHT22;13090;53.422;7.670;2023-06-19T21:09:40;24.00;56.60
25108;DHT22;13090;53.422;7.670;2023-06-19T21:15:03;23.90;57.20
25108;DHT22;13090;53.422;7.670;2023-06-19T21:20:24;23.80;57.70
25108;DHT22;13090;53.422;7.670;2023-06-19T21:25:47;23.60;57.80
25108;DHT22;13090;53.422;7.670;2023-06-19T21:31:09;23.50;58.00
25108;DHT22;13090;53.422;7.670;2023-06-19T21:36:30;23.30;58.40
25108;DHT22;13090;53.422;7.670;2023-06-19T21:41:51;23.20;58.20
25108;DHT22;13090;53.422;7.670;2023-06-19T21:47:13;23.00;58.60
25108;DHT22;13090;53.422;7.670;2023-06-19T21:52:34;22.70;59.60
25108;DHT22;13090;53.422;7.670;2023-06-19T21:57:55;22.30;61.40
25108;DHT22;13090;53.422;7.670;2023-06-19T22:03:22;21.70;62.20
25108;DHT22;13090;53.422;7.670;2023-06-19T22:08:43;21.20;63.70
25108;DHT22;13090;53.422;7.670;2023-06-19T22:14:03;21.00;63.80
25108;DHT22;13090;53.422;7.670;2023-06-19T22:19:26;20.90;64.30
25108;DHT22;13090;53.422;7.670;2023-06-19T22:24:47;20.90;65.50
25108;DHT22;13090;53.422;7.670;2023-06-19T22:30:08;20.80;67.60
25108;DHT22;13090;53.422;7.670;2023-06-19T22:35:31;20.60;66.50
25108;DHT22;13090;53.422;7.670;2023-06-19T22:40:52;20.40;68.80
25108;DHT22;13090;53.422;7.670;2023-06-19T22:46:13;20.10;72.90
25108;DHT22;13090;53.422;7.670;2023-06-19T22:51:35;19.80;71.00
25108;DHT22;13090;53.422;7.670;2023-06-19T22:56:56;19.60;71.90
25108;DHT22;13090;53.422;7.670;2023-06-19T23:02:17;19.40;73.00
25108;DHT22;13090;53.422;7.670;2023-06-19T23:07:40;19.40;72.30
25108;DHT22;13090;53.422;7.670;2023-06-19T23:13:01;19.30;73.20
25108;DHT22;13090;53.422;7.670;2023-06-19T23:18:22;19.30;72.00
25108;DHT22;13090;53.422;7.670;2023-06-19T23:23:44;19.40;72.70
25108;DHT22;13090;53.422;7.670;2023-06-19T23:29:05;19.40;72.70
25108;DHT22;13090;53.422;7.670;2023-06-19T23:34:26;19.50;72.20
25108;DHT22;13090;53.422;7.670;2023-06-19T23:39:48;19.50;71.80
25108;DHT22;13090;53.422;7.670;2023-06-19T23:45:09;19.60;72.50
25108;DHT22;13090;53.422;7.670;2023-06-19T23:50:30;19.50;72.40
25108;DHT22;13090;53.422;7.670;2023-06-19T23:55:52;19.50;73.00
